createdAt,value
2018-04-30T00:01:00.917Z,94767.52
2018-04-30T00:03:29.364Z,94767.38
2018-04-30T00:05:57.841Z,94776.86
2018-04-30T00:08:26.284Z,94770.83
2018-04-30T00:10:54.781Z,94775.06
2018-04-30T00:13:23.275Z,94773.11
2018-04-30T00:15:51.724Z,94768.29
2018-04-30T00:18:20.183Z,94766.19
2018-04-30T00:20:48.606Z,94767.05
2018-04-30T00:23:17.068Z,94772.93
2018-04-30T00:25:45.448Z,94770.67
2018-04-30T00:28:13.868Z,94768.80
2018-04-30T00:30:42.299Z,94775.34
2018-04-30T00:33:10.746Z,94774.70
2018-04-30T00:35:39.149Z,94773.81
2018-04-30T00:38:07.540Z,94776.03
2018-04-30T00:40:36.023Z,94775.20
2018-04-30T00:43:04.450Z,94778.23
2018-04-30T00:45:32.859Z,94776.98
2018-04-30T00:48:01.309Z,94774.27
2018-04-30T00:50:29.731Z,94769.73
2018-04-30T00:52:58.129Z,94777.12
2018-04-30T00:55:26.591Z,94771.64
2018-04-30T00:57:55.035Z,94778.34
2018-04-30T01:00:23.484Z,94778.43
2018-04-30T01:02:51.952Z,94770.31
2018-04-30T01:05:20.387Z,94771.29
2018-04-30T01:07:48.863Z,94771.56
2018-04-30T01:10:17.473Z,94772.50
2018-04-30T01:12:46.219Z,94771.53
2018-04-30T01:15:14.675Z,94767.08
2018-04-30T01:17:43.183Z,94766.92
2018-04-30T01:20:11.587Z,94765.59
2018-04-30T01:22:40.056Z,94766.65
2018-04-30T01:25:08.434Z,94768.39
2018-04-30T01:27:36.866Z,94755.83
2018-04-30T01:30:05.347Z,94759.34
2018-04-30T01:32:33.816Z,94759.91
2018-04-30T01:35:02.292Z,94757.76
2018-04-30T01:37:30.700Z,94755.19
2018-04-30T01:39:59.161Z,94757.87
2018-04-30T01:42:27.547Z,94735.12
2018-04-30T01:44:56.006Z,94757.86
2018-04-30T01:47:24.440Z,94763.11
2018-04-30T01:49:52.910Z,94761.33
2018-04-30T01:52:21.394Z,94757.52
2018-04-30T01:54:49.846Z,94757.75
2018-04-30T01:57:18.289Z,94776.91
2018-04-30T01:59:46.745Z,94769.89
2018-04-30T02:02:15.127Z,94768.46
2018-04-30T02:04:43.595Z,94758.75
2018-04-30T02:07:12.007Z,94764.44
2018-04-30T02:09:40.494Z,94758.13
2018-04-30T02:12:08.878Z,94760.33
2018-04-30T02:14:37.293Z,94754.49
2018-04-30T02:17:05.794Z,94752.68
2018-04-30T02:19:34.174Z,94752.25
2018-04-30T02:22:02.715Z,94759.98
2018-04-30T02:24:33.037Z,94759.94
2018-04-30T02:27:01.507Z,94754.16
2018-04-30T02:29:29.918Z,94749.93
2018-04-30T02:31:58.723Z,94751.83
2018-04-30T02:34:27.151Z,94753.36
2018-04-30T02:36:55.564Z,94750.97
2018-04-30T02:39:24.143Z,94749.63
2018-04-30T02:41:52.509Z,94745.06
2018-04-30T02:44:20.919Z,94750.34
2018-04-30T02:46:49.384Z,94749.51
2018-04-30T02:49:17.821Z,94744.08
2018-04-30T02:51:46.237Z,94752.05
2018-04-30T02:54:14.731Z,94752.68
2018-04-30T02:56:43.347Z,94755.13
2018-04-30T02:59:11.726Z,94752.01
2018-04-30T03:01:40.178Z,94750.02
2018-04-30T03:04:08.647Z,94750.11
2018-04-30T03:06:37.119Z,94754.47
2018-04-30T03:09:05.584Z,94753.95
2018-04-30T03:11:33.957Z,94753.72
2018-04-30T03:14:02.428Z,94764.58
2018-04-30T03:16:30.848Z,94761.02
2018-04-30T03:18:59.302Z,94758.08
2018-04-30T03:21:27.720Z,94753.67
2018-04-30T03:23:56.150Z,94742.17
2018-04-30T03:26:24.533Z,94761.56
2018-04-30T03:28:52.978Z,94740.02
2018-04-30T03:31:21.428Z,94758.03
2018-04-30T03:33:49.843Z,94761.57
2018-04-30T03:36:18.285Z,94759.44
2018-04-30T03:38:46.749Z,94763.27
2018-04-30T03:41:15.155Z,94759.34
2018-04-30T03:43:43.596Z,94769.85
2018-04-30T03:46:11.980Z,94771.97
2018-04-30T03:48:40.453Z,94766.77
2018-04-30T03:51:08.883Z,94767.92
2018-04-30T03:53:37.287Z,94766.49
2018-04-30T03:56:05.757Z,94768.42
2018-04-30T03:58:34.180Z,94775.25
2018-04-30T04:01:14.418Z,94777.58
2018-04-30T04:03:54.791Z,94776.43
2018-04-30T04:06:32.813Z,94771.73
2018-04-30T04:09:01.259Z,94773.28
2018-04-30T04:11:29.691Z,94779.84
2018-04-30T04:13:58.095Z,94774.75
2018-04-30T04:16:26.501Z,94780.73
2018-04-30T04:18:54.996Z,94787.81
2018-04-30T04:21:23.437Z,94764.19
2018-04-30T04:23:51.859Z,94791.45
2018-04-30T04:26:20.310Z,94788.35
2018-04-30T04:28:48.730Z,94786.37
2018-04-30T04:31:17.179Z,94783.38
2018-04-30T04:33:45.655Z,94784.27
2018-04-30T04:36:14.050Z,94783.84
2018-04-30T04:38:42.499Z,94784.82
2018-04-30T04:41:10.963Z,94781.04
2018-04-30T04:43:39.477Z,94783.92
2018-04-30T04:46:07.907Z,94793.97
2018-04-30T04:48:36.393Z,94793.76
2018-04-30T04:51:04.787Z,94787.02
2018-04-30T04:53:33.182Z,94790.69
2018-04-30T04:56:01.633Z,94789.66
2018-04-30T04:58:30.070Z,94790.03
2018-04-30T05:00:58.477Z,94800.44
2018-04-30T05:03:26.931Z,94800.95
2018-04-30T05:05:55.335Z,94792.66
2018-04-30T05:08:23.770Z,94801.47
2018-04-30T05:10:52.262Z,94808.03
2018-04-30T05:13:20.771Z,94810.41
2018-04-30T05:15:49.137Z,94809.49
2018-04-30T05:18:17.519Z,94808.39
2018-04-30T05:20:45.999Z,94814.14
2018-04-30T05:23:14.405Z,94812.39
2018-04-30T05:25:42.783Z,94810.25
2018-04-30T05:28:11.175Z,94804.78
2018-04-30T05:30:39.555Z,94810.80
2018-04-30T05:33:07.996Z,94807.56
2018-04-30T05:35:36.385Z,94811.00
2018-04-30T05:38:04.851Z,94808.65
2018-04-30T05:40:33.270Z,94807.51
2018-04-30T05:43:01.683Z,94803.05
2018-04-30T05:45:30.141Z,94807.92
2018-04-30T05:47:58.556Z,94812.27
2018-04-30T05:50:27.099Z,94803.98
2018-04-30T05:52:55.563Z,94801.09
2018-04-30T05:55:23.987Z,94801.75
2018-04-30T05:57:52.447Z,94806.37
2018-04-30T06:00:20.843Z,94804.28
2018-04-30T06:02:49.311Z,94807.27
2018-04-30T06:05:17.731Z,94804.75
2018-04-30T06:07:46.307Z,94813.31
2018-04-30T06:10:14.799Z,94808.89
2018-04-30T06:12:43.292Z,94810.27
2018-04-30T06:15:11.765Z,94808.12
2018-04-30T06:17:40.239Z,94813.00
2018-04-30T06:20:08.699Z,94815.30
2018-04-30T06:22:37.127Z,94816.30
2018-04-30T06:25:05.529Z,94812.95
2018-04-30T06:27:33.954Z,94814.54
2018-04-30T06:30:02.345Z,94813.70
2018-04-30T06:32:30.788Z,94808.69
2018-04-30T06:34:59.166Z,94803.37
2018-04-30T06:37:27.596Z,94813.17
2018-04-30T06:39:55.974Z,94807.82
2018-04-30T06:42:24.352Z,94804.89
2018-04-30T06:44:52.779Z,94799.62
2018-04-30T06:47:21.203Z,94801.91
2018-04-30T06:49:49.635Z,94799.38
2018-04-30T06:52:18.108Z,94800.22
2018-04-30T06:54:46.501Z,94806.34
2018-04-30T06:57:14.923Z,94801.57
2018-04-30T06:59:43.359Z,94782.66
2018-04-30T07:02:11.786Z,94799.33
2018-04-30T07:04:40.236Z,94798.05
2018-04-30T07:07:08.665Z,94798.36
2018-04-30T07:09:37.192Z,94782.50
2018-04-30T07:12:05.599Z,94790.22
2018-04-30T07:14:34.044Z,94785.42
2018-04-30T07:17:02.484Z,94792.20
2018-04-30T07:19:31.038Z,94788.73
2018-04-30T07:21:59.427Z,94779.86
2018-04-30T07:24:27.870Z,94781.84
2018-04-30T07:26:56.319Z,94781.74
2018-04-30T07:29:24.759Z,94778.98
2018-04-30T07:31:53.182Z,94759.63
2018-04-30T07:34:21.562Z,94775.33
2018-04-30T07:36:49.979Z,94759.45
2018-04-30T07:39:18.432Z,94784.17
2018-04-30T07:41:46.904Z,94781.95
2018-04-30T07:44:15.335Z,94774.44
2018-04-30T07:46:43.751Z,94776.62
2018-04-30T07:49:12.242Z,94767.44
2018-04-30T07:51:40.755Z,94764.13
2018-04-30T07:54:09.176Z,94767.22
2018-04-30T07:56:37.603Z,94764.47
2018-04-30T07:59:06.049Z,94759.73
2018-04-30T08:01:34.503Z,94761.52
2018-04-30T08:04:03.079Z,94761.45
2018-04-30T08:06:31.497Z,94758.66
2018-04-30T08:08:59.987Z,94745.57
2018-04-30T08:11:28.430Z,94748.34
2018-04-30T08:13:56.904Z,94752.38
2018-04-30T08:16:25.296Z,94745.27
2018-04-30T08:18:53.829Z,94741.57
2018-04-30T08:21:22.209Z,94740.27
2018-04-30T08:23:50.639Z,94722.56
2018-04-30T08:26:19.251Z,94738.16
2018-04-30T08:28:47.653Z,94734.59
2018-04-30T08:31:16.055Z,94729.56
2018-04-30T08:33:44.505Z,94726.63
2018-04-30T08:36:12.897Z,94722.00
2018-04-30T08:38:41.359Z,94721.94
2018-04-30T08:41:09.771Z,94715.19
2018-04-30T08:43:38.186Z,94714.88
2018-04-30T08:46:06.641Z,94717.39
2018-04-30T08:48:35.087Z,94708.30
2018-04-30T08:51:03.652Z,94672.56
2018-04-30T08:53:32.080Z,94701.99
2018-04-30T08:56:00.523Z,94700.66
2018-04-30T08:58:29.000Z,94697.61
2018-04-30T09:00:57.548Z,94691.94
2018-04-30T09:03:26.029Z,94690.02
2018-04-30T09:05:54.411Z,94693.73
2018-04-30T09:08:22.804Z,94657.27
2018-04-30T09:10:51.283Z,94689.00
2018-04-30T09:13:19.715Z,94683.77
2018-04-30T09:15:48.107Z,94677.42
2018-04-30T09:18:16.523Z,94677.75
2018-04-30T09:20:44.969Z,94667.09
2018-04-30T09:23:13.354Z,94667.92
2018-04-30T09:25:41.809Z,94671.25
2018-04-30T09:28:10.273Z,94668.16
2018-04-30T09:30:38.720Z,94667.86
2018-04-30T09:33:07.101Z,94664.02
2018-04-30T09:35:35.592Z,94667.89
2018-04-30T09:38:04.056Z,94668.17
2018-04-30T09:40:32.531Z,94661.39
2018-04-30T09:43:00.944Z,94653.09
2018-04-30T09:45:29.357Z,94658.29
2018-04-30T09:47:57.806Z,94659.38
2018-04-30T09:50:26.202Z,94636.08
2018-04-30T09:52:54.631Z,94639.81
2018-04-30T09:55:23.082Z,94638.94
2018-04-30T09:57:51.592Z,94643.02
2018-04-30T10:00:19.900Z,94642.56
2018-04-30T10:02:48.386Z,94641.56
2018-04-30T10:05:16.799Z,94488.58
2018-04-30T10:07:46.227Z,94636.04
2018-04-30T10:10:14.663Z,94634.69
2018-04-30T10:12:43.056Z,94630.07
2018-04-30T10:15:11.448Z,94627.95
2018-04-30T10:17:39.937Z,94619.17
2018-04-30T10:20:08.290Z,94620.05
2018-04-30T10:22:36.769Z,94608.23
2018-04-30T10:25:05.207Z,94616.20
2018-04-30T10:27:33.660Z,94619.70
2018-04-30T10:30:02.055Z,94612.02
2018-04-30T10:32:30.496Z,94617.77
2018-04-30T10:34:58.933Z,94612.45
2018-04-30T10:37:27.420Z,94612.84
2018-04-30T10:39:55.839Z,94615.92
2018-04-30T10:42:24.220Z,94604.31
2018-04-30T10:44:52.685Z,94604.52
2018-04-30T10:47:21.091Z,94584.34
2018-04-30T10:49:49.514Z,94594.93
2018-04-30T10:52:17.927Z,94597.81
2018-04-30T10:54:46.332Z,94597.91
2018-04-30T10:57:14.753Z,94593.28
2018-04-30T10:59:43.203Z,94590.73
2018-04-30T11:02:11.657Z,94585.06
2018-04-30T11:04:40.114Z,94578.34
2018-04-30T11:07:08.495Z,94575.04
2018-04-30T11:09:36.908Z,94578.41
2018-04-30T11:12:05.408Z,94575.91
2018-04-30T11:14:33.836Z,94574.42
2018-04-30T11:17:02.224Z,94575.38
2018-04-30T11:19:30.653Z,94574.33
2018-04-30T11:21:59.043Z,94584.21
2018-04-30T11:24:27.414Z,94574.77
2018-04-30T11:26:55.872Z,94573.13
2018-04-30T11:29:24.248Z,94560.23
2018-04-30T11:31:52.693Z,94562.86
2018-04-30T11:34:21.090Z,94560.92
2018-04-30T11:36:49.547Z,94541.56
2018-04-30T11:39:17.960Z,94550.32
2018-04-30T11:41:46.407Z,94552.05
2018-04-30T11:44:14.839Z,94549.27
2018-04-30T11:46:43.326Z,94548.39
2018-04-30T11:49:11.779Z,94544.08
2018-04-30T11:51:40.217Z,94547.86
2018-04-30T11:54:08.623Z,94538.64
2018-04-30T11:56:37.088Z,94506.55
2018-04-30T11:59:05.471Z,94536.70
2018-04-30T12:01:33.865Z,94534.08
2018-04-30T12:04:02.331Z,94525.84
2018-04-30T12:06:30.754Z,94517.05
2018-04-30T12:08:59.151Z,94505.92
2018-04-30T12:11:27.604Z,94517.54
2018-04-30T12:13:56.039Z,94519.35
2018-04-30T12:16:24.467Z,94520.66
2018-04-30T12:18:52.936Z,94518.69
2018-04-30T12:21:21.394Z,94509.33
2018-04-30T12:23:49.819Z,94521.41
2018-04-30T12:26:18.301Z,94495.08
2018-04-30T12:28:47.555Z,94506.98
2018-04-30T12:31:16.049Z,94512.14
2018-04-30T12:33:44.501Z,94445.05
2018-04-30T12:36:12.944Z,94510.24
2018-04-30T12:38:41.460Z,94501.59
2018-04-30T12:41:09.904Z,94500.04
2018-04-30T12:43:38.316Z,94499.86
2018-04-30T12:46:06.779Z,94511.09
2018-04-30T12:48:35.184Z,94496.34
2018-04-30T12:51:03.647Z,94494.67
2018-04-30T12:53:32.067Z,94494.09
2018-04-30T12:56:00.486Z,94484.73
2018-04-30T12:58:28.990Z,94484.06
2018-04-30T13:00:57.412Z,94490.55
2018-04-30T13:03:25.858Z,94488.00
2018-04-30T13:05:54.263Z,94479.19
2018-04-30T13:08:22.660Z,94475.44
2018-04-30T13:10:51.183Z,94480.53
2018-04-30T13:13:19.600Z,94487.08
2018-04-30T13:15:48.111Z,94483.68
2018-04-30T13:18:16.559Z,94484.30
2018-04-30T13:20:44.957Z,94488.86
2018-04-30T13:23:13.383Z,94488.98
2018-04-30T13:25:41.792Z,94472.86
2018-04-30T13:28:10.232Z,94475.34
2018-04-30T13:30:38.777Z,94479.41
2018-04-30T13:33:07.263Z,94480.98
2018-04-30T13:35:35.681Z,94472.97
2018-04-30T13:38:04.121Z,94476.16
2018-04-30T13:40:32.508Z,94457.30
2018-04-30T13:43:00.937Z,94464.41
2018-04-30T13:45:29.323Z,94472.97
2018-04-30T13:47:57.761Z,94467.79
2018-04-30T13:50:26.164Z,94472.91
2018-04-30T13:52:54.587Z,94465.91
2018-04-30T13:55:23.042Z,94451.95
2018-04-30T13:57:51.509Z,94455.23
2018-04-30T14:00:20.215Z,94469.96
2018-04-30T14:02:48.597Z,94460.19
2018-04-30T14:05:17.032Z,94459.00
2018-04-30T14:07:45.468Z,94458.86
2018-04-30T14:10:13.885Z,94462.61
2018-04-30T14:12:42.270Z,94452.45
2018-04-30T14:15:10.689Z,94460.31
2018-04-30T14:17:39.058Z,94463.38
2018-04-30T14:20:07.488Z,94465.30
2018-04-30T14:22:35.875Z,94463.94
2018-04-30T14:25:04.506Z,94443.30
2018-04-30T14:27:32.890Z,94454.56
2018-04-30T14:30:01.383Z,94465.39
2018-04-30T14:32:29.818Z,94460.84
2018-04-30T14:34:58.251Z,94462.13
2018-04-30T14:37:26.668Z,94460.30
2018-04-30T14:39:55.070Z,94462.92
2018-04-30T14:42:23.552Z,94461.73
2018-04-30T14:44:52.005Z,94464.93
2018-04-30T14:47:20.402Z,94467.13
2018-04-30T14:49:48.915Z,94461.19
2018-04-30T14:52:18.914Z,94461.87
2018-04-30T14:54:47.319Z,94460.25
2018-04-30T14:57:15.693Z,94453.48
2018-04-30T14:59:44.136Z,94454.70
2018-04-30T15:02:12.661Z,94449.05
2018-04-30T15:04:41.056Z,94451.28
2018-04-30T15:07:09.495Z,94450.77
2018-04-30T15:09:37.880Z,94456.45
2018-04-30T15:12:06.311Z,94447.30
2018-04-30T15:14:34.718Z,94433.94
2018-04-30T15:17:03.311Z,94434.77
2018-04-30T15:19:31.831Z,94433.08
2018-04-30T15:22:00.259Z,94442.55
2018-04-30T15:24:28.693Z,94444.86
2018-04-30T15:26:57.092Z,94439.16
2018-04-30T15:29:25.469Z,94438.98
2018-04-30T15:31:54.016Z,94435.26
2018-04-30T15:34:22.576Z,94434.87
2018-04-30T15:36:51.049Z,94428.73
2018-04-30T15:39:19.783Z,94436.13
2018-04-30T15:41:48.191Z,94432.73
2018-04-30T15:44:16.592Z,94430.11
2018-04-30T15:46:45.427Z,94433.62
2018-04-30T15:49:13.822Z,94430.61
2018-04-30T15:51:43.094Z,94425.48
2018-04-30T15:54:12.221Z,94431.33
2018-04-30T15:56:40.654Z,94432.61
2018-04-30T15:59:09.131Z,94428.55
2018-04-30T16:01:37.507Z,94430.11
2018-04-30T16:04:05.942Z,94427.36
2018-04-30T16:06:34.366Z,94427.59
2018-04-30T16:09:02.792Z,94417.23
2018-04-30T16:11:31.203Z,94431.19
2018-04-30T16:13:59.813Z,94451.09
2018-04-30T16:16:28.152Z,94429.42
2018-04-30T16:18:56.545Z,94425.14
2018-04-30T16:21:24.974Z,94433.70
2018-04-30T16:23:53.356Z,94429.20
2018-04-30T16:26:21.774Z,94428.27
2018-04-30T16:28:50.246Z,94434.30
2018-04-30T16:31:18.652Z,94439.23
2018-04-30T16:33:47.185Z,94438.59
2018-04-30T16:36:15.590Z,94442.39
2018-04-30T16:38:44.031Z,94444.16
2018-04-30T16:41:12.468Z,94450.03
2018-04-30T16:43:40.898Z,94452.27
2018-04-30T16:46:09.287Z,94454.22
2018-04-30T16:48:37.710Z,94459.92
2018-04-30T16:51:06.121Z,94460.97
2018-04-30T16:53:34.538Z,94465.38
2018-04-30T16:56:02.936Z,94463.30
2018-04-30T16:58:31.337Z,94450.39
2018-04-30T17:00:59.876Z,94474.80
2018-04-30T17:03:28.263Z,94472.41
2018-04-30T17:05:56.747Z,94470.31
2018-04-30T17:08:25.137Z,94470.79
2018-04-30T17:10:53.630Z,94473.64
2018-04-30T17:13:22.007Z,94478.77
2018-04-30T17:15:50.703Z,94480.71
2018-04-30T17:18:19.116Z,94485.53
2018-04-30T17:20:47.521Z,94492.69
2018-04-30T17:23:16.426Z,94494.95
2018-04-30T17:25:44.831Z,94494.80
2018-04-30T17:28:13.235Z,94499.43
2018-04-30T17:30:42.095Z,94500.61
2018-04-30T17:33:10.623Z,94505.13
2018-04-30T17:35:39.016Z,94506.09
2018-04-30T17:38:07.463Z,94512.16
2018-04-30T17:40:35.865Z,94513.48
2018-04-30T17:43:04.246Z,94511.70
2018-04-30T17:45:33.124Z,94515.69
2018-04-30T17:48:01.520Z,94503.26
2018-04-30T17:50:29.911Z,94515.44
2018-04-30T17:52:58.712Z,94512.31
2018-04-30T17:55:27.122Z,94519.23
2018-04-30T17:57:55.529Z,94521.05
2018-04-30T18:00:23.976Z,94515.59
2018-04-30T18:02:52.407Z,94518.84
2018-04-30T18:05:20.799Z,94507.88
2018-04-30T18:07:49.220Z,94517.34
2018-04-30T18:10:17.702Z,94514.60
2018-04-30T18:12:46.477Z,94511.38
2018-04-30T18:15:14.949Z,94516.44
2018-04-30T18:17:43.377Z,94521.22
2018-04-30T18:20:11.813Z,94523.13
2018-04-30T18:22:40.232Z,94526.95
2018-04-30T18:25:08.615Z,94527.27
2018-04-30T18:27:37.080Z,94529.13
2018-04-30T18:30:08.735Z,94531.62
2018-04-30T18:32:37.215Z,94510.17
2018-04-30T18:35:05.604Z,94529.97
2018-04-30T18:37:34.109Z,94510.41
2018-04-30T18:40:02.495Z,94537.66
2018-04-30T18:42:30.891Z,94534.84
2018-04-30T18:44:59.335Z,94539.03
2018-04-30T18:47:27.755Z,94542.67
2018-04-30T18:49:56.260Z,94540.33
2018-04-30T18:52:24.743Z,94541.37
2018-04-30T18:54:53.290Z,94549.47
2018-04-30T18:57:21.736Z,94547.47
2018-04-30T18:59:50.171Z,94554.08
2018-04-30T19:02:18.660Z,94533.50
2018-04-30T19:04:47.065Z,94551.67
2018-04-30T19:07:15.495Z,94551.57
2018-04-30T19:09:43.913Z,94556.40
2018-04-30T19:12:12.313Z,94555.72
2018-04-30T19:14:40.770Z,94556.45
2018-04-30T19:17:09.198Z,94565.41
2018-04-30T19:19:37.636Z,94564.76
2018-04-30T19:22:06.089Z,94559.84
2018-04-30T19:24:34.467Z,94562.52
2018-04-30T19:27:02.921Z,94563.03
2018-04-30T19:29:31.328Z,94570.00
2018-04-30T19:31:59.752Z,94568.69
2018-04-30T19:34:28.201Z,94572.27
2018-04-30T19:36:56.616Z,94572.20
2018-04-30T19:39:25.023Z,94575.05
2018-04-30T19:41:53.459Z,94572.01
2018-04-30T19:44:21.894Z,94571.23
2018-04-30T19:46:50.409Z,94575.51
2018-04-30T19:49:18.736Z,94574.48
2018-04-30T19:51:47.206Z,94581.30
2018-04-30T19:54:15.679Z,94588.19
2018-04-30T19:56:44.060Z,94584.11
2018-04-30T19:59:12.464Z,94584.09
2018-04-30T20:01:40.936Z,94579.94
2018-04-30T20:04:09.376Z,94589.83
2018-04-30T20:06:37.824Z,94579.73
2018-04-30T20:09:07.120Z,94582.35
2018-04-30T20:11:35.586Z,94584.19
2018-04-30T20:14:04.024Z,94582.55
2018-04-30T20:16:32.452Z,94575.14
2018-04-30T20:19:00.875Z,94587.85
2018-04-30T20:21:29.273Z,94582.58
2018-04-30T20:23:57.743Z,94589.87
2018-04-30T20:26:26.129Z,94591.83
2018-04-30T20:28:54.520Z,94592.34
2018-04-30T20:31:22.941Z,94595.16
2018-04-30T20:33:51.319Z,94585.42
2018-04-30T20:36:19.753Z,94590.00
2018-04-30T20:38:48.161Z,94572.33
2018-04-30T20:41:16.588Z,94582.73
2018-04-30T20:43:45.039Z,94590.33
2018-04-30T20:46:13.487Z,94596.02
2018-04-30T20:48:41.867Z,94589.36
2018-04-30T20:51:10.289Z,94597.82
2018-04-30T20:53:38.673Z,94591.63
2018-04-30T20:56:07.122Z,94594.09
2018-04-30T20:58:35.531Z,94593.25
2018-04-30T21:01:03.923Z,94595.16
2018-04-30T21:03:32.397Z,94595.61
2018-04-30T21:06:00.974Z,94591.13
2018-04-30T21:08:29.459Z,94593.23
2018-04-30T21:10:57.893Z,94595.90
2018-04-30T21:13:26.291Z,94597.18
2018-04-30T21:15:54.749Z,94603.40
2018-04-30T21:18:23.139Z,94602.34
2018-04-30T21:20:51.566Z,94604.73
2018-04-30T21:23:19.972Z,94606.41
2018-04-30T21:25:48.450Z,94611.30
2018-04-30T21:28:16.831Z,94612.31
2018-04-30T21:30:45.384Z,94617.38
2018-04-30T21:33:13.943Z,94620.90
2018-04-30T21:35:42.361Z,94620.28
2018-04-30T21:38:10.802Z,94621.98
2018-04-30T21:40:39.256Z,94623.49
2018-04-30T21:43:07.674Z,94634.23
2018-04-30T21:45:36.130Z,94627.66
2018-04-30T21:48:04.553Z,94624.28
2018-04-30T21:50:32.938Z,94610.19
2018-04-30T21:53:01.387Z,94631.12
2018-04-30T21:55:29.793Z,94637.94
2018-04-30T21:57:58.235Z,94637.24
2018-04-30T22:00:28.540Z,94640.39
2018-04-30T22:02:56.975Z,94639.45
2018-04-30T22:05:25.374Z,94642.89
2018-04-30T22:07:53.784Z,94643.16
2018-04-30T22:10:22.235Z,94652.70
2018-04-30T22:12:50.760Z,94643.91
2018-04-30T22:15:19.200Z,94644.65
2018-04-30T22:17:47.676Z,94651.48
2018-04-30T22:20:16.154Z,94652.81
2018-04-30T22:22:44.599Z,94650.45
2018-04-30T22:25:13.097Z,94656.77
2018-04-30T22:27:41.496Z,94659.09
2018-04-30T22:30:09.899Z,94658.08
2018-04-30T22:32:38.385Z,94656.72
2018-04-30T22:35:06.996Z,94649.66
2018-04-30T22:37:35.439Z,94648.28
2018-04-30T22:40:03.895Z,94656.11
2018-04-30T22:42:32.805Z,94652.12
2018-04-30T22:45:01.306Z,94634.95
2018-04-30T22:47:29.787Z,94655.54
2018-04-30T22:49:58.305Z,94645.44
2018-04-30T22:52:26.729Z,94641.39
2018-04-30T22:54:55.127Z,94643.07
2018-04-30T22:57:23.590Z,94641.89
2018-04-30T22:59:52.022Z,94635.87
2018-04-30T23:02:20.424Z,94635.44
2018-04-30T23:04:48.880Z,94632.72
2018-04-30T23:07:17.280Z,94633.22
2018-04-30T23:09:45.762Z,94629.36
2018-04-30T23:12:14.206Z,94626.55
2018-04-30T23:14:42.816Z,94621.73
2018-04-30T23:17:11.251Z,94623.17
2018-04-30T23:19:39.679Z,94615.76
2018-04-30T23:22:08.137Z,94625.86
2018-04-30T23:24:36.687Z,94617.31
2018-04-30T23:27:05.089Z,94615.62
2018-04-30T23:29:33.599Z,94620.63
2018-04-30T23:32:02.041Z,94614.59
2018-04-30T23:34:30.488Z,94611.48
2018-04-30T23:36:59.041Z,94614.73
2018-04-30T23:39:27.386Z,94605.27
2018-04-30T23:41:55.815Z,94612.09
2018-04-30T23:44:24.256Z,94612.78
2018-04-30T23:46:52.716Z,94609.19
2018-04-30T23:49:21.130Z,94614.69
2018-04-30T23:51:49.585Z,94613.23
2018-04-30T23:54:17.987Z,94620.62
2018-04-30T23:56:46.438Z,94620.22
2018-04-30T23:59:14.879Z,94620.73
